الصفحة الرئيسية
METAR-TAF:

METAR-TAF

مطار :

Weno, مايكرونيزيا

دائرة عرض: 07-28N, خط طول: 151-51E, ارتفاع: 3 متر

مراقبة الطقس الحالي

تاريخ ووقت الإصدار 46 دقيقة قبل الساعة 13:50UTC
ريح 5 عقدةمن اتجاهات متغيرة
درجة الحرارة 27°درجة مئوية
الرطوبة 89%
ضغط 1010 hPa
الرؤية: 24.1 كم
غيوم قليلة على ارتفاع 1400 قدم
غيوم متفرقة على ارتفاع 12000 قدم
غيوم مفككة على ارتفاع 28000 قدم

METAR: PTKK 151350Z VRB05KT 15SM FEW014 SCT120 BKN280 27/25 A2983 RMK SLP101 T02670249

زمن: 00:36 (14:36 UTC)

توقعات

تاريخ ووقت الإصدار 3ساعات و 5 دقيقة قبل الساعة 11:31UTC
التوقعات صالحة من15 الساعة 12 UTC إلى 16 الساعة 12 UTC
ريح 5 عقدةمن اتجاهات متغيرة
الرؤية: 10 كم
غيوم قليلة على ارتفاع 1400 قدم
غيوم متفرقة على ارتفاع 12000 قدم
زخات في الجوار

TAF: PTKK 151131Z 1512/1612 VRB05KT P6SM VCSH FEW014 SCT120

أرصاد الطقس والتوقعات من أكثر من 4000 مطار (تقارير الطقس للمطار METAR والتنبؤ بالطقس بالمطارTAF).

المحطات المتاحة هي النقط الصفراء والحمراء على الخريطة.

حرك المؤشر فوق النقطة لمعرفة اسم المحطة.

ثم انقر لمعرفة أرصاد وتوقعات الطقس.

لتغيير الخارطة: اضغط على الأزرار الخضراء مع رمز الصليب الأسود للتكبير. على الزر الأخضر مع شرطة للتصغير، أو على الأسهم الخضراء للخرائط المجاورة.


METAR-TAF: